createdAt,value
2023-02-11T00:01:36.932Z,6.30
2023-02-11T00:04:07.543Z,6.30
2023-02-11T00:06:36.890Z,6.30
2023-02-11T00:09:05.959Z,6.30
2023-02-11T00:11:34.617Z,6.20
2023-02-11T00:14:08.493Z,6.30
2023-02-11T00:16:36.545Z,6.30
2023-02-11T00:19:06.875Z,6.30
2023-02-11T00:21:35.575Z,6.30
2023-02-11T00:24:03.955Z,6.30
2023-02-11T00:26:36.807Z,6.20
2023-02-11T00:29:06.148Z,6.30
2023-02-11T00:31:34.770Z,6.30
2023-02-11T00:34:03.025Z,6.30
2023-02-11T00:36:31.796Z,6.40
2023-02-11T00:39:00.566Z,6.40
2023-02-11T00:41:29.721Z,6.50
2023-02-11T00:44:01.987Z,6.50
2023-02-11T00:46:30.450Z,6.60
2023-02-11T00:48:58.326Z,6.60
2023-02-11T00:51:29.125Z,6.60
2023-02-11T00:53:57.462Z,6.70
2023-02-11T00:56:25.271Z,6.70
2023-02-11T00:58:54.122Z,6.70
2023-02-11T01:01:22.294Z,6.70
2023-02-11T01:03:50.315Z,6.70
2023-02-11T01:06:18.553Z,6.70
2023-02-11T01:08:46.280Z,6.70
2023-02-11T01:11:20.829Z,6.80
2023-02-11T01:13:51.630Z,6.80
2023-02-11T01:16:21.577Z,6.70
2023-02-11T01:18:49.774Z,6.70
2023-02-11T01:21:19.761Z,6.80
2023-02-11T01:23:47.638Z,6.70
2023-02-11T01:26:15.367Z,6.70
2023-02-11T01:28:43.381Z,6.70
2023-02-11T01:31:11.391Z,6.60
2023-02-11T01:33:39.571Z,6.60
2023-02-11T01:36:11.904Z,6.60
2023-02-11T01:38:41.137Z,6.60
2023-02-11T01:41:15.167Z,6.60
2023-02-11T01:43:50.334Z,6.70
2023-02-11T01:46:38.273Z,6.60
2023-02-11T01:49:18.970Z,6.60
2023-02-11T01:52:28.070Z,6.70
2023-02-11T01:55:27.037Z,6.70
2023-02-11T01:58:05.217Z,6.60
2023-02-11T02:00:41.714Z,6.60
2023-02-11T02:03:22.702Z,6.60
2023-02-11T02:06:16.914Z,6.60
2023-02-11T02:09:02.053Z,6.60
2023-02-11T02:11:30.649Z,6.50
2023-02-11T02:13:58.573Z,6.50
2023-02-11T02:16:36.493Z,6.50
2023-02-11T02:20:19.385Z,6.60
2023-02-11T02:23:47.770Z,6.50
2023-02-11T02:27:19.871Z,6.50
2023-02-11T02:30:30.244Z,6.40
2023-02-11T02:33:42.993Z,6.40
2023-02-11T02:37:07.304Z,6.40
2023-02-11T02:39:37.738Z,6.40
2023-02-11T02:42:07.445Z,6.40
2023-02-11T02:44:35.194Z,6.40
2023-02-11T02:47:03.049Z,6.40
2023-02-11T02:49:30.909Z,6.40
2023-02-11T02:52:33.341Z,6.30
2023-02-11T02:55:32.813Z,6.30
2023-02-11T02:58:59.280Z,6.40
2023-02-11T03:02:40.532Z,6.30
2023-02-11T03:06:06.098Z,6.30
2023-02-11T03:09:44.047Z,6.30
2023-02-11T03:12:16.338Z,6.30
2023-02-11T03:14:47.544Z,6.20
2023-02-11T03:17:18.584Z,6.30
2023-02-11T03:19:51.997Z,6.30
2023-02-11T03:22:48.059Z,6.20
2023-02-11T03:25:16.950Z,6.20
2023-02-11T03:28:18.618Z,6.20
2023-02-11T03:32:18.156Z,6.20
2023-02-11T03:35:18.198Z,6.20
2023-02-11T03:38:22.593Z,6.20
2023-02-11T03:40:54.589Z,6.10
2023-02-11T03:43:37.233Z,6.20
2023-02-11T03:46:08.714Z,6.10
2023-02-11T03:48:54.329Z,6.10
2023-02-11T03:51:27.282Z,6.10
2023-02-11T03:54:04.846Z,6.10
2023-02-11T03:56:49.187Z,6.10
2023-02-11T03:59:17.290Z,6.10
2023-02-11T04:01:45.157Z,6.00
2023-02-11T04:04:13.223Z,6.00
2023-02-11T04:06:41.510Z,5.90
2023-02-11T04:09:10.369Z,5.90
2023-02-11T04:11:38.319Z,5.80
2023-02-11T04:14:06.164Z,5.80
2023-02-11T04:16:33.868Z,5.80
2023-02-11T04:19:01.848Z,5.80
2023-02-11T04:21:29.633Z,5.80
2023-02-11T04:23:57.587Z,5.80
2023-02-11T04:26:25.250Z,5.80
2023-02-11T04:28:52.980Z,5.80
2023-02-11T04:31:20.803Z,5.80
2023-02-11T04:33:48.611Z,5.70
2023-02-11T04:36:16.309Z,5.70
2023-02-11T04:38:44.056Z,5.80
2023-02-11T04:41:11.707Z,5.80
2023-02-11T04:43:39.371Z,5.80
2023-02-11T04:46:07.097Z,5.80
2023-02-11T04:48:35.408Z,5.80
2023-02-11T04:51:04.151Z,5.80
2023-02-11T04:53:31.908Z,5.80
2023-02-11T04:55:59.599Z,5.80
2023-02-11T04:58:27.367Z,5.80
2023-02-11T05:00:55.223Z,5.80
2023-02-11T05:03:22.915Z,5.80
2023-02-11T05:05:51.529Z,5.80
2023-02-11T05:08:19.450Z,5.80
2023-02-11T05:10:48.250Z,5.90
2023-02-11T05:13:17.552Z,5.90
2023-02-11T05:15:45.758Z,5.90
2023-02-11T05:18:15.160Z,5.90
2023-02-11T05:20:44.527Z,5.90
2023-02-11T05:23:13.443Z,5.90
2023-02-11T05:25:41.273Z,5.80
2023-02-11T05:28:09.105Z,5.80
2023-02-11T05:30:36.954Z,5.80
2023-02-11T05:33:04.737Z,5.80
2023-02-11T05:35:32.704Z,5.80
2023-02-11T05:38:00.386Z,5.80
2023-02-11T05:40:28.126Z,5.80
2023-02-11T05:42:55.910Z,5.90
2023-02-11T05:45:23.579Z,5.80
2023-02-11T05:47:51.277Z,5.80
2023-02-11T05:50:19.136Z,5.90
2023-02-11T05:52:47.588Z,5.90
2023-02-11T05:55:16.164Z,5.90
2023-02-11T05:57:43.998Z,5.90
2023-02-11T06:00:13.250Z,6.00
2023-02-11T06:02:41.368Z,6.00
2023-02-11T06:05:10.003Z,5.90
2023-02-11T06:07:40.369Z,5.90
2023-02-11T06:10:11.839Z,5.80
2023-02-11T06:12:40.532Z,5.90
2023-02-11T06:15:09.016Z,5.80
2023-02-11T06:17:37.522Z,5.90
2023-02-11T06:20:10.706Z,5.80
2023-02-11T06:22:38.831Z,5.80
2023-02-11T06:25:07.338Z,5.80
2023-02-11T06:27:35.139Z,5.80
2023-02-11T06:30:05.315Z,5.80
2023-02-11T06:32:43.711Z,5.80
2023-02-11T06:35:14.899Z,5.80
2023-02-11T06:37:43.216Z,5.80
2023-02-11T06:40:12.801Z,5.80
2023-02-11T06:42:40.717Z,5.80
2023-02-11T06:45:11.295Z,5.80
2023-02-11T06:47:40.915Z,5.80
2023-02-11T06:50:14.976Z,5.80
2023-02-11T06:52:42.858Z,5.80
2023-02-11T06:55:10.553Z,5.80
2023-02-11T06:57:38.361Z,5.90
2023-02-11T07:00:07.929Z,5.90
2023-02-11T07:02:36.741Z,5.90
2023-02-11T07:05:08.267Z,5.90
2023-02-11T07:07:37.704Z,5.90
2023-02-11T07:10:06.734Z,6.00
2023-02-11T07:12:34.493Z,6.00
2023-02-11T07:15:02.748Z,6.00
2023-02-11T07:17:30.539Z,5.90
2023-02-11T07:19:58.307Z,5.90
2023-02-11T07:22:26.241Z,5.90
2023-02-11T07:24:54.109Z,5.90
2023-02-11T07:27:21.753Z,5.90
2023-02-11T07:29:49.488Z,6.00
2023-02-11T07:32:17.453Z,6.00
2023-02-11T07:34:45.632Z,6.00
2023-02-11T07:37:13.352Z,6.00
2023-02-11T07:39:41.338Z,6.00
2023-02-11T07:42:09.010Z,6.00
2023-02-11T07:44:37.198Z,6.00
2023-02-11T07:47:05.024Z,6.10
2023-02-11T07:49:32.809Z,6.10
2023-02-11T07:52:00.734Z,6.20
2023-02-11T07:54:28.730Z,6.20
2023-02-11T07:56:56.534Z,6.20
2023-02-11T07:59:24.980Z,6.20
2023-02-11T08:01:52.873Z,6.20
2023-02-11T08:04:20.673Z,6.20
2023-02-11T08:06:48.542Z,6.30
2023-02-11T08:09:17.160Z,6.30
2023-02-11T08:11:45.712Z,6.30
2023-02-11T08:14:13.713Z,6.30
2023-02-11T08:16:43.229Z,6.30
2023-02-11T08:19:17.298Z,6.30
2023-02-11T08:21:46.124Z,6.30
2023-02-11T08:24:16.544Z,6.40
2023-02-11T08:26:44.461Z,6.40
2023-02-11T08:29:16.766Z,6.40
2023-02-11T08:31:48.398Z,6.40
2023-02-11T08:34:19.200Z,6.40
2023-02-11T08:36:48.932Z,6.40
2023-02-11T08:39:22.591Z,6.50
2023-02-11T08:41:56.708Z,6.50
2023-02-11T08:44:25.448Z,6.50
2023-02-11T08:46:54.278Z,6.50
2023-02-11T08:49:22.427Z,6.60
2023-02-11T08:51:51.124Z,6.50
2023-02-11T08:54:19.197Z,6.60
2023-02-11T08:56:52.149Z,6.60
2023-02-11T08:59:20.253Z,6.70
2023-02-11T09:01:51.484Z,6.70
2023-02-11T09:04:20.560Z,6.70
2023-02-11T09:06:48.307Z,6.70
2023-02-11T09:09:18.454Z,6.70
2023-02-11T09:11:46.681Z,6.70
2023-02-11T09:14:23.861Z,6.70
2023-02-11T09:16:53.304Z,6.80
2023-02-11T09:19:23.200Z,6.80
2023-02-11T09:21:51.846Z,6.80
2023-02-11T09:24:19.686Z,6.90
2023-02-11T09:26:47.601Z,6.90
2023-02-11T09:29:15.325Z,7.00
2023-02-11T09:31:43.235Z,7.10
2023-02-11T09:34:13.107Z,7.20
2023-02-11T09:36:42.047Z,7.20
2023-02-11T09:39:20.397Z,7.20
2023-02-11T09:43:02.357Z,7.20
2023-02-11T09:45:33.022Z,7.30
2023-02-11T09:48:16.259Z,7.20
2023-02-11T09:50:56.229Z,7.20
2023-02-11T09:53:41.915Z,7.30
2023-02-11T09:56:16.155Z,7.20
2023-02-11T09:58:47.382Z,7.20
2023-02-11T10:02:01.665Z,7.30
2023-02-11T10:04:59.213Z,7.40
2023-02-11T10:07:56.906Z,7.50
2023-02-11T10:11:00.762Z,7.50
2023-02-11T10:13:52.704Z,7.40
2023-02-11T10:16:58.245Z,7.50
2023-02-11T10:19:50.957Z,7.60
2023-02-11T10:22:47.560Z,7.70
2023-02-11T10:25:48.607Z,7.80
2023-02-11T10:28:41.580Z,7.80
2023-02-11T10:31:29.562Z,7.70
2023-02-11T10:34:08.035Z,7.90
2023-02-11T10:36:44.855Z,7.90
2023-02-11T10:39:33.415Z,7.80
2023-02-11T10:42:13.369Z,7.80
2023-02-11T10:45:07.469Z,7.90
2023-02-11T10:47:42.893Z,7.90
2023-02-11T10:50:35.260Z,7.70
2023-02-11T10:53:22.362Z,7.70
2023-02-11T10:55:57.591Z,7.70
2023-02-11T10:58:46.257Z,7.60
2023-02-11T11:01:24.368Z,7.60
2023-02-11T11:03:53.892Z,7.60
2023-02-11T11:06:35.078Z,7.60
2023-02-11T11:09:02.683Z,7.60
2023-02-11T11:11:30.968Z,7.50
2023-02-11T11:14:03.875Z,7.60
2023-02-11T11:16:35.992Z,7.70
2023-02-11T11:19:09.621Z,7.70
2023-02-11T11:21:53.874Z,7.60
2023-02-11T11:24:37.686Z,7.50
2023-02-11T11:27:07.220Z,7.50
2023-02-11T11:29:56.928Z,7.50
2023-02-11T11:32:43.868Z,7.50
2023-02-11T11:35:35.241Z,7.50
2023-02-11T11:38:06.062Z,7.60
2023-02-11T11:40:36.392Z,7.70
2023-02-11T11:43:13.111Z,7.70
2023-02-11T11:45:59.702Z,7.70
2023-02-11T11:48:42.956Z,7.70
2023-02-11T11:51:14.510Z,7.70
2023-02-11T11:54:06.407Z,7.80
2023-02-11T11:56:59.623Z,7.90
2023-02-11T11:59:36.486Z,7.90
2023-02-11T12:03:40.149Z,8.00
2023-02-11T12:07:07.145Z,8.00
2023-02-11T12:10:16.345Z,7.90
2023-02-11T12:13:37.792Z,8.00
2023-02-11T12:16:34.988Z,7.90
2023-02-11T12:20:03.588Z,7.80
2023-02-11T12:23:21.715Z,7.70
2023-02-11T12:26:23.108Z,7.90
2023-02-11T12:29:53.455Z,8.00
2023-02-11T12:32:46.383Z,8.00
2023-02-11T12:35:41.638Z,8.10
2023-02-11T12:38:40.417Z,8.20
2023-02-11T12:42:14.203Z,8.10
2023-02-11T12:45:47.343Z,8.10
2023-02-11T12:48:44.909Z,8.30
2023-02-11T12:51:52.867Z,8.30
2023-02-11T12:55:11.150Z,8.30
2023-02-11T12:57:48.072Z,8.30
2023-02-11T13:00:36.249Z,8.20
2023-02-11T13:03:09.832Z,8.30
2023-02-11T13:05:57.033Z,8.30
2023-02-11T13:08:46.094Z,8.40
2023-02-11T13:11:43.226Z,8.40
2023-02-11T13:14:42.397Z,8.50
2023-02-11T13:17:50.228Z,8.50
2023-02-11T13:20:58.904Z,8.40
2023-02-11T13:23:58.920Z,8.50
2023-02-11T13:27:04.872Z,8.50
2023-02-11T13:30:36.859Z,8.50
2023-02-11T13:33:17.066Z,8.60
2023-02-11T13:36:15.390Z,8.60
2023-02-11T13:39:03.895Z,8.40
2023-02-11T13:41:52.890Z,8.40
2023-02-11T13:44:28.591Z,8.40
2023-02-11T13:47:07.840Z,8.40
2023-02-11T13:49:53.532Z,8.50
2023-02-11T13:52:35.002Z,8.60
2023-02-11T13:55:22.927Z,8.60
2023-02-11T13:58:09.007Z,8.60
2023-02-11T14:00:37.140Z,8.50
2023-02-11T14:03:54.660Z,8.50
2023-02-11T14:06:48.228Z,8.70
2023-02-11T14:09:17.404Z,8.90
2023-02-11T14:11:59.879Z,8.90
2023-02-11T14:14:33.692Z,9.10
2023-02-11T14:17:10.332Z,9.30
2023-02-11T14:19:44.548Z,9.40
2023-02-11T14:22:42.732Z,9.50
2023-02-11T14:25:39.509Z,9.60
2023-02-11T14:28:32.915Z,9.60
2023-02-11T14:31:28.610Z,9.60
2023-02-11T14:34:42.352Z,9.50
2023-02-11T14:38:23.222Z,9.50
2023-02-11T14:41:32.741Z,9.50
2023-02-11T14:44:34.628Z,9.50
2023-02-11T14:47:14.739Z,9.40
2023-02-11T14:49:49.706Z,9.30
2023-02-11T14:52:39.642Z,9.30
2023-02-11T14:55:43.579Z,9.30
2023-02-11T14:58:35.078Z,9.30
2023-02-11T15:01:36.870Z,9.20
2023-02-11T15:04:33.764Z,9.20
2023-02-11T15:07:17.942Z,9.30
2023-02-11T15:09:56.347Z,9.30
2023-02-11T15:12:31.308Z,9.30
2023-02-11T15:15:17.498Z,9.30
2023-02-11T15:17:50.525Z,9.30
2023-02-11T15:20:43.821Z,9.20
2023-02-11T15:23:31.491Z,9.10
2023-02-11T15:26:06.984Z,9.10
2023-02-11T15:28:40.051Z,9.00
2023-02-11T15:31:25.119Z,9.00
2023-02-11T15:33:57.733Z,8.90
2023-02-11T15:36:35.044Z,9.00
2023-02-11T15:39:43.743Z,8.90
2023-02-11T15:42:47.225Z,8.90
2023-02-11T15:45:46.936Z,8.90
2023-02-11T15:48:51.013Z,8.80
2023-02-11T15:51:42.590Z,8.80
2023-02-11T15:54:30.595Z,8.80
2023-02-11T15:57:13.967Z,8.80
2023-02-11T15:59:58.117Z,8.70
2023-02-11T16:02:46.388Z,8.70
2023-02-11T16:05:41.979Z,8.70
2023-02-11T16:08:34.052Z,8.60
2023-02-11T16:11:11.450Z,8.60
2023-02-11T16:13:51.222Z,8.60
2023-02-11T16:16:37.104Z,8.60
2023-02-11T16:19:25.342Z,8.60
2023-02-11T16:22:12.017Z,8.60
2023-02-11T16:25:02.493Z,8.60
2023-02-11T16:27:50.600Z,8.60
2023-02-11T16:30:43.736Z,8.60
2023-02-11T16:33:14.651Z,8.60
2023-02-11T16:35:45.007Z,8.60
2023-02-11T16:38:12.881Z,8.60
2023-02-11T16:40:40.926Z,8.50
2023-02-11T16:43:09.729Z,8.50
2023-02-11T16:45:40.602Z,8.50
2023-02-11T16:48:15.809Z,8.50
2023-02-11T16:50:53.315Z,8.50
2023-02-11T16:53:25.626Z,8.40
2023-02-11T16:55:54.481Z,8.50
2023-02-11T16:58:22.280Z,8.40
2023-02-11T17:00:51.556Z,8.40
2023-02-11T17:03:29.847Z,8.40
2023-02-11T17:05:58.317Z,8.40
2023-02-11T17:08:26.006Z,8.30
2023-02-11T17:10:53.870Z,8.30
2023-02-11T17:13:21.721Z,8.30
2023-02-11T17:15:50.155Z,8.30
2023-02-11T17:18:18.187Z,8.30
2023-02-11T17:20:47.311Z,8.30
2023-02-11T17:23:15.266Z,8.20
2023-02-11T17:25:43.082Z,8.20
2023-02-11T17:28:12.242Z,8.10
2023-02-11T17:30:43.615Z,8.20
2023-02-11T17:33:11.430Z,8.20
2023-02-11T17:35:42.296Z,8.20
2023-02-11T17:38:10.119Z,8.20
2023-02-11T17:40:37.827Z,8.10
2023-02-11T17:43:05.686Z,8.10
2023-02-11T17:45:34.154Z,8.10
2023-02-11T17:48:02.129Z,8.10
2023-02-11T17:50:29.825Z,8.10
2023-02-11T17:52:57.855Z,8.10
2023-02-11T17:55:25.531Z,8.10
2023-02-11T17:57:53.494Z,8.00
2023-02-11T18:00:22.698Z,7.90
2023-02-11T18:02:50.766Z,7.90
2023-02-11T18:05:18.677Z,7.90
2023-02-11T18:07:48.102Z,7.80
2023-02-11T18:10:15.867Z,7.90
2023-02-11T18:12:43.831Z,7.80
2023-02-11T18:15:12.208Z,7.90
2023-02-11T18:17:39.944Z,7.80
2023-02-11T18:20:09.320Z,7.90
2023-02-11T18:22:39.520Z,7.90
2023-02-11T18:25:11.196Z,8.00
2023-02-11T18:27:39.152Z,8.00
2023-02-11T18:30:15.852Z,8.00
2023-02-11T18:32:43.819Z,8.00
2023-02-11T18:35:15.692Z,8.00
2023-02-11T18:37:43.994Z,8.00
2023-02-11T18:40:14.197Z,8.00
2023-02-11T18:42:42.960Z,8.00
2023-02-11T18:45:15.733Z,8.00
2023-02-11T18:47:43.929Z,8.10
2023-02-11T18:50:14.986Z,8.00
2023-02-11T18:52:43.285Z,8.00
2023-02-11T18:55:11.165Z,8.10
2023-02-11T18:57:38.974Z,8.10
2023-02-11T19:00:11.018Z,8.10
2023-02-11T19:02:38.981Z,8.10
2023-02-11T19:05:07.603Z,8.00
2023-02-11T19:07:35.324Z,8.00
2023-02-11T19:10:05.210Z,8.00
2023-02-11T19:12:33.324Z,8.00
2023-02-11T19:15:01.216Z,8.00
2023-02-11T19:17:29.080Z,8.00
2023-02-11T19:19:56.945Z,7.90
2023-02-11T19:22:24.917Z,7.90
2023-02-11T19:24:52.860Z,8.00
2023-02-11T19:27:20.872Z,8.00
2023-02-11T19:29:48.845Z,8.00
2023-02-11T19:32:16.815Z,8.00
2023-02-11T19:34:44.868Z,8.00
2023-02-11T19:37:13.723Z,8.00
2023-02-11T19:39:44.298Z,8.00
2023-02-11T19:42:13.282Z,8.00
2023-02-11T19:44:41.107Z,8.00
2023-02-11T19:47:10.469Z,8.00
2023-02-11T19:49:38.188Z,8.00
2023-02-11T19:52:06.062Z,8.00
2023-02-11T19:54:33.833Z,8.00
2023-02-11T19:57:01.657Z,8.00
2023-02-11T19:59:29.524Z,8.00
2023-02-11T20:01:57.838Z,8.00
2023-02-11T20:04:25.796Z,8.00
2023-02-11T20:06:53.928Z,7.90
2023-02-11T20:09:22.980Z,8.00
2023-02-11T20:11:50.897Z,7.90
2023-02-11T20:14:19.465Z,7.90
2023-02-11T20:16:49.781Z,7.90
2023-02-11T20:19:22.748Z,7.90
2023-02-11T20:21:56.012Z,7.90
2023-02-11T20:24:26.194Z,7.90
2023-02-11T20:26:56.099Z,7.90
2023-02-11T20:29:25.988Z,7.90
2023-02-11T20:31:54.969Z,7.90
2023-02-11T20:34:25.030Z,7.80
2023-02-11T20:36:53.272Z,7.80
2023-02-11T20:39:25.605Z,7.80
2023-02-11T20:41:54.715Z,7.90
2023-02-11T20:44:24.346Z,7.90
2023-02-11T20:46:54.548Z,7.90
2023-02-11T20:49:25.197Z,7.90
2023-02-11T20:51:55.322Z,7.90
2023-02-11T20:54:26.191Z,7.90
2023-02-11T20:56:56.134Z,7.80
2023-02-11T20:59:24.705Z,7.80
2023-02-11T21:01:57.257Z,7.80
2023-02-11T21:04:30.446Z,7.80
2023-02-11T21:07:02.198Z,7.80
2023-02-11T21:09:33.381Z,7.90
2023-02-11T21:12:02.211Z,7.80
2023-02-11T21:14:30.737Z,7.80
2023-02-11T21:16:59.348Z,7.80
2023-02-11T21:19:27.471Z,7.80
2023-02-11T21:21:57.326Z,7.80
2023-02-11T21:24:25.269Z,7.80
2023-02-11T21:26:52.935Z,7.80
2023-02-11T21:29:20.769Z,7.80
2023-02-11T21:31:48.947Z,7.70
2023-02-11T21:34:16.749Z,7.80
2023-02-11T21:36:45.326Z,7.80
2023-02-11T21:39:14.538Z,7.80
2023-02-11T21:41:42.372Z,7.80
2023-02-11T21:44:10.304Z,7.80
2023-02-11T21:46:38.241Z,7.80
2023-02-11T21:49:05.913Z,7.80
2023-02-11T21:51:33.595Z,7.80
2023-02-11T21:54:03.786Z,7.80
2023-02-11T21:56:35.488Z,7.80
2023-02-11T21:59:04.061Z,7.80
2023-02-11T22:01:35.963Z,7.80
2023-02-11T22:04:04.668Z,7.70
2023-02-11T22:06:35.247Z,7.80
2023-02-11T22:09:11.159Z,7.80
2023-02-11T22:11:39.555Z,7.80
2023-02-11T22:14:08.115Z,7.80
2023-02-11T22:16:36.822Z,7.90
2023-02-11T22:19:07.257Z,7.80
2023-02-11T22:21:35.075Z,7.90
2023-02-11T22:24:08.770Z,7.90
2023-02-11T22:26:37.391Z,7.90
2023-02-11T22:29:07.166Z,7.90
2023-02-11T22:31:36.240Z,7.90
2023-02-11T22:34:05.703Z,7.80
2023-02-11T22:36:40.226Z,7.80
2023-02-11T22:39:15.504Z,7.80
2023-02-11T22:41:46.760Z,7.80
2023-02-11T22:44:17.357Z,7.80
2023-02-11T22:46:45.903Z,7.80
2023-02-11T22:49:18.449Z,7.80
2023-02-11T22:51:47.967Z,7.70
2023-02-11T22:54:19.438Z,7.70
2023-02-11T22:56:52.458Z,7.70
2023-02-11T22:59:21.615Z,7.70
2023-02-11T23:01:50.195Z,7.70
2023-02-11T23:04:19.702Z,7.70
2023-02-11T23:06:50.499Z,7.70
2023-02-11T23:09:18.529Z,7.70
2023-02-11T23:11:48.593Z,7.70
2023-02-11T23:14:16.308Z,7.80
2023-02-11T23:16:43.974Z,7.80
2023-02-11T23:19:12.455Z,7.70
2023-02-11T23:21:40.847Z,7.70
2023-02-11T23:24:14.836Z,7.70
2023-02-11T23:26:45.778Z,7.70
2023-02-11T23:29:14.365Z,7.70
2023-02-11T23:31:46.567Z,7.70
2023-02-11T23:34:17.384Z,7.70
2023-02-11T23:36:45.360Z,7.70
2023-02-11T23:39:17.095Z,7.60
2023-02-11T23:41:46.613Z,7.60
2023-02-11T23:44:14.394Z,7.60
2023-02-11T23:46:42.085Z,7.70
2023-02-11T23:49:10.039Z,7.70
2023-02-11T23:51:37.777Z,7.60
2023-02-11T23:54:05.500Z,7.60
2023-02-11T23:56:38.119Z,7.60
2023-02-11T23:59:06.919Z,7.70
